createdAt,value
2023-01-12T00:01:11.631Z,5.30
2023-01-12T00:03:57.782Z,6.40
2023-01-12T00:06:43.545Z,4.50
2023-01-12T00:09:28.858Z,4.80
2023-01-12T00:12:14.597Z,4.40
2023-01-12T00:14:59.749Z,4.40
2023-01-12T00:17:45.332Z,4.50
2023-01-12T00:20:30.954Z,4.70
2023-01-12T00:23:16.568Z,4.80
2023-01-12T00:26:02.136Z,4.70
2023-01-12T00:28:47.715Z,4.60
2023-01-12T00:31:33.322Z,4.70
2023-01-12T00:34:19.114Z,4.70
2023-01-12T00:37:04.638Z,4.70
2023-01-12T00:40:01.565Z,4.60
2023-01-12T00:43:06.455Z,4.60
2023-01-12T00:45:51.964Z,4.70
2023-01-12T00:48:37.400Z,4.80
2023-01-12T00:51:22.996Z,4.90
2023-01-12T00:54:08.662Z,5.10
2023-01-12T00:56:54.395Z,4.90
2023-01-12T00:59:40.256Z,7.20
2023-01-12T01:02:29.049Z,6.20
2023-01-12T01:05:14.522Z,6.40
2023-01-12T01:07:59.770Z,5.20
2023-01-12T01:10:46.771Z,5.10
2023-01-12T01:13:32.509Z,5.90
2023-01-12T01:16:18.299Z,5.10
2023-01-12T01:19:05.846Z,5.00
2023-01-12T01:21:51.379Z,5.40
2023-01-12T01:24:36.816Z,5.10
2023-01-12T01:27:22.352Z,5.20
2023-01-12T01:30:08.632Z,5.10
2023-01-12T01:32:53.809Z,5.00
2023-01-12T01:35:39.409Z,5.10
2023-01-12T01:38:24.780Z,5.10
2023-01-12T01:41:26.271Z,5.20
2023-01-12T01:44:30.262Z,5.30
2023-01-12T01:47:25.980Z,5.20
2023-01-12T01:50:29.983Z,6.70
2023-01-12T01:53:20.936Z,5.20
2023-01-12T01:56:18.447Z,5.20
2023-01-12T01:59:16.049Z,5.10
2023-01-12T02:02:02.731Z,5.10
2023-01-12T02:04:48.569Z,6.60
2023-01-12T02:07:34.448Z,5.00
2023-01-12T02:10:20.788Z,5.00
2023-01-12T02:13:25.249Z,5.30
2023-01-12T02:16:23.339Z,5.00
2023-01-12T02:19:34.493Z,5.10
2023-01-12T02:22:59.738Z,5.10
2023-01-12T02:26:25.852Z,5.10
2023-01-12T02:29:29.540Z,5.00
2023-01-12T02:32:42.416Z,4.90
2023-01-12T02:35:47.727Z,5.00
2023-01-12T02:38:41.777Z,5.20
2023-01-12T02:42:01.451Z,5.20
2023-01-12T02:44:53.250Z,5.40
2023-01-12T02:47:56.777Z,5.40
2023-01-12T02:51:10.612Z,5.40
2023-01-12T02:54:01.716Z,5.40
2023-01-12T02:57:01.741Z,5.30
2023-01-12T02:59:50.690Z,5.30
2023-01-12T03:02:37.528Z,5.50
2023-01-12T03:05:23.090Z,6.90
2023-01-12T03:08:12.826Z,5.60
2023-01-12T03:11:14.649Z,7.20
2023-01-12T03:14:02.783Z,5.40
2023-01-12T03:16:50.064Z,5.40
2023-01-12T03:19:36.413Z,5.40
2023-01-12T03:22:22.959Z,7.00
2023-01-12T03:25:14.148Z,5.20
2023-01-12T03:28:03.857Z,5.00
2023-01-12T03:31:00.909Z,5.50
2023-01-12T03:33:46.444Z,4.90
2023-01-12T03:36:52.074Z,6.60
2023-01-12T03:39:57.869Z,6.40
2023-01-12T03:43:04.718Z,4.80
2023-01-12T03:45:59.383Z,5.00
2023-01-12T03:49:00.722Z,4.70
2023-01-12T03:51:48.670Z,4.60
2023-01-12T03:54:36.919Z,4.70
2023-01-12T03:57:23.178Z,4.70
2023-01-12T04:00:12.283Z,4.80
2023-01-12T04:03:11.988Z,4.80
2023-01-12T04:05:57.315Z,4.90
2023-01-12T04:08:43.116Z,4.80
2023-01-12T04:11:47.112Z,4.80
2023-01-12T04:14:32.474Z,4.90
2023-01-12T04:17:19.109Z,5.70
2023-01-12T04:20:04.887Z,4.80
2023-01-12T04:22:50.354Z,4.80
2023-01-12T04:25:36.250Z,4.70
2023-01-12T04:28:21.740Z,5.00
2023-01-12T04:31:09.065Z,6.00
2023-01-12T04:33:54.368Z,4.50
2023-01-12T04:36:43.154Z,5.10
2023-01-12T04:39:29.098Z,6.90
2023-01-12T04:42:33.713Z,4.70
2023-01-12T04:45:18.881Z,6.00
2023-01-12T04:48:07.272Z,4.70
2023-01-12T04:50:53.021Z,4.70
2023-01-12T04:53:38.497Z,4.50
2023-01-12T04:56:24.037Z,4.50
2023-01-12T04:59:10.741Z,4.50
2023-01-12T05:01:55.932Z,5.60
2023-01-12T05:04:42.599Z,4.60
2023-01-12T05:07:27.833Z,4.50
2023-01-12T05:10:25.432Z,4.50
2023-01-12T05:13:10.560Z,4.60
2023-01-12T05:15:56.119Z,4.60
2023-01-12T05:18:46.152Z,4.60
2023-01-12T05:21:31.642Z,4.50
2023-01-12T05:24:17.308Z,6.40
2023-01-12T05:27:02.981Z,5.60
2023-01-12T05:29:49.526Z,4.20
2023-01-12T05:32:38.712Z,4.20
2023-01-12T05:35:24.093Z,3.90
2023-01-12T05:38:09.560Z,4.20
2023-01-12T05:40:58.326Z,4.20
2023-01-12T05:43:52.966Z,4.20
2023-01-12T05:46:40.275Z,4.20
2023-01-12T05:49:25.527Z,4.20
2023-01-12T05:52:10.784Z,4.10
2023-01-12T05:54:56.022Z,5.60
2023-01-12T05:57:41.520Z,3.90
2023-01-12T06:00:27.237Z,4.40
2023-01-12T06:03:12.971Z,4.00
2023-01-12T06:05:58.589Z,4.90
2023-01-12T06:08:44.547Z,4.00
2023-01-12T06:11:48.947Z,3.80
2023-01-12T06:14:35.522Z,3.70
2023-01-12T06:17:20.920Z,3.70
2023-01-12T06:20:07.638Z,3.50
2023-01-12T06:22:52.912Z,3.60
2023-01-12T06:25:38.350Z,3.60
2023-01-12T06:28:23.968Z,4.80
2023-01-12T06:31:12.149Z,3.30
2023-01-12T06:33:57.568Z,3.30
2023-01-12T06:36:43.096Z,3.10
2023-01-12T06:39:29.537Z,3.30
2023-01-12T06:42:31.628Z,3.20
2023-01-12T06:45:17.546Z,3.00
2023-01-12T06:48:03.290Z,2.90
2023-01-12T06:50:48.845Z,3.00
2023-01-12T06:53:34.435Z,4.00
2023-01-12T06:56:19.921Z,4.20
2023-01-12T06:59:05.518Z,3.00
2023-01-12T07:01:51.282Z,3.00
2023-01-12T07:04:36.602Z,3.00
2023-01-12T07:07:22.182Z,2.90
2023-01-12T07:10:08.413Z,3.10
2023-01-12T07:12:53.952Z,3.20
2023-01-12T07:15:39.385Z,3.20
2023-01-12T07:18:24.468Z,3.20
2023-01-12T07:21:13.559Z,3.30
2023-01-12T07:23:59.067Z,3.40
2023-01-12T07:26:44.769Z,3.80
2023-01-12T07:29:30.446Z,3.40
2023-01-12T07:32:15.784Z,3.40
2023-01-12T07:35:01.380Z,3.40
2023-01-12T07:37:51.051Z,3.40
2023-01-12T07:40:37.035Z,3.30
2023-01-12T07:43:23.398Z,4.40
2023-01-12T07:46:08.715Z,3.60
2023-01-12T07:48:54.179Z,3.70
2023-01-12T07:51:39.791Z,3.70
2023-01-12T07:54:25.044Z,3.70
2023-01-12T07:57:11.985Z,3.70
2023-01-12T07:59:57.515Z,3.60
2023-01-12T08:02:43.169Z,5.20
2023-01-12T08:05:28.989Z,4.10
2023-01-12T08:08:14.430Z,3.80
2023-01-12T08:11:04.687Z,3.90
2023-01-12T08:13:55.145Z,4.10
2023-01-12T08:16:45.853Z,4.10
2023-01-12T08:19:50.915Z,4.30
2023-01-12T08:22:40.034Z,4.40
2023-01-12T08:25:31.986Z,4.40
2023-01-12T08:28:21.077Z,4.40
2023-01-12T08:31:10.027Z,4.30
2023-01-12T08:33:55.969Z,4.60
2023-01-12T08:36:44.171Z,4.40
2023-01-12T08:39:30.187Z,4.50
2023-01-12T08:42:15.480Z,4.70
2023-01-12T08:45:01.474Z,6.90
2023-01-12T08:47:46.806Z,6.10
2023-01-12T08:50:32.475Z,5.10
2023-01-12T08:53:17.937Z,5.70
2023-01-12T08:56:03.477Z,5.40
2023-01-12T08:58:49.151Z,5.20
2023-01-12T09:01:35.156Z,4.90
2023-01-12T09:04:20.880Z,5.30
2023-01-12T09:07:10.947Z,5.40
2023-01-12T09:09:56.135Z,5.80
2023-01-12T09:12:41.399Z,6.40
2023-01-12T09:15:27.430Z,5.60
2023-01-12T09:18:12.999Z,6.20
2023-01-12T09:21:10.566Z,6.10
2023-01-12T09:23:56.389Z,5.70
2023-01-12T09:26:44.922Z,5.90
2023-01-12T09:29:30.375Z,7.30
2023-01-12T09:32:18.536Z,6.00
2023-01-12T09:35:06.219Z,6.00
2023-01-12T09:37:51.596Z,5.90
2023-01-12T09:40:37.399Z,6.00
2023-01-12T09:43:49.026Z,6.10
2023-01-12T09:46:57.720Z,6.30
2023-01-12T09:49:51.894Z,6.40
2023-01-12T09:52:57.382Z,7.70
2023-01-12T09:56:14.906Z,6.80
2023-01-12T09:59:07.829Z,7.00
2023-01-12T10:01:54.113Z,7.00
2023-01-12T10:04:40.248Z,7.20
2023-01-12T10:07:25.837Z,8.90
2023-01-12T10:10:15.344Z,9.00
2023-01-12T10:13:07.189Z,7.20
2023-01-12T10:16:01.798Z,7.10
2023-01-12T10:18:52.755Z,7.20
2023-01-12T10:21:41.536Z,7.30
2023-01-12T10:24:26.805Z,7.50
2023-01-12T10:27:15.602Z,7.60
2023-01-12T10:30:02.273Z,9.10
2023-01-12T10:32:47.700Z,7.90
2023-01-12T10:35:33.009Z,7.50
2023-01-12T10:38:24.614Z,8.40
2023-01-12T10:41:10.064Z,7.90
2023-01-12T10:43:58.227Z,7.30
2023-01-12T10:46:43.774Z,7.30
2023-01-12T10:49:29.013Z,7.40
2023-01-12T10:52:36.212Z,7.50
2023-01-12T10:55:23.382Z,7.90
2023-01-12T10:58:21.609Z,7.80
2023-01-12T11:01:07.308Z,10.10
2023-01-12T11:04:05.077Z,7.90
2023-01-12T11:06:56.933Z,7.90
2023-01-12T11:09:43.759Z,7.90
2023-01-12T11:12:38.416Z,7.90
2023-01-12T11:15:23.953Z,8.00
2023-01-12T11:18:56.596Z,8.40
2023-01-12T11:21:49.525Z,9.30
2023-01-12T11:24:47.573Z,8.10
2023-01-12T11:27:40.722Z,8.40
2023-01-12T11:30:34.392Z,9.70
2023-01-12T11:33:42.592Z,8.90
2023-01-12T11:36:31.618Z,8.40
2023-01-12T11:39:22.503Z,8.50
2023-01-12T11:42:38.074Z,8.60
2023-01-12T11:45:48.442Z,8.80
2023-01-12T11:48:55.178Z,8.70
2023-01-12T11:51:41.936Z,8.80
2023-01-12T11:54:28.958Z,9.60
2023-01-12T11:57:50.405Z,8.50
2023-01-12T12:01:07.080Z,8.60
2023-01-12T12:04:00.019Z,8.70
2023-01-12T12:07:20.608Z,8.70
2023-01-12T12:10:22.398Z,8.70
2023-01-12T12:13:17.008Z,9.00
2023-01-12T12:16:22.876Z,9.20
2023-01-12T12:19:50.002Z,9.30
2023-01-12T12:23:07.123Z,9.10
2023-01-12T12:26:19.586Z,8.90
2023-01-12T12:29:20.066Z,9.10
2023-01-12T12:32:44.354Z,9.00
2023-01-12T12:35:53.565Z,9.00
2023-01-12T12:38:58.415Z,9.00
2023-01-12T12:42:35.078Z,9.00
2023-01-12T12:45:58.324Z,11.70
2023-01-12T12:49:04.979Z,8.80
2023-01-12T12:51:51.495Z,8.90
2023-01-12T12:54:37.406Z,8.90
2023-01-12T12:57:23.042Z,10.20
2023-01-12T13:00:32.930Z,10.20
2023-01-12T13:03:40.092Z,9.20
2023-01-12T13:06:43.821Z,9.10
2023-01-12T13:09:29.256Z,9.20
2023-01-12T13:12:22.333Z,9.10
2023-01-12T13:15:24.189Z,9.10
2023-01-12T13:18:42.209Z,9.20
2023-01-12T13:21:28.766Z,9.10
2023-01-12T13:24:13.920Z,8.80
2023-01-12T13:27:01.229Z,8.90
2023-01-12T13:29:46.606Z,9.00
2023-01-12T13:32:36.133Z,9.50
2023-01-12T13:35:28.806Z,9.70
2023-01-12T13:38:29.587Z,9.10
2023-01-12T13:41:15.187Z,9.10
2023-01-12T13:44:01.581Z,9.20
2023-01-12T13:46:50.054Z,9.20
2023-01-12T13:49:43.929Z,9.80
2023-01-12T13:52:35.933Z,9.80
2023-01-12T13:55:23.570Z,9.10
2023-01-12T13:58:19.176Z,9.10
2023-01-12T14:01:42.496Z,10.70
2023-01-12T14:04:55.366Z,9.40
2023-01-12T14:07:46.721Z,9.20
2023-01-12T14:10:42.682Z,9.20
2023-01-12T14:13:46.166Z,10.40
2023-01-12T14:17:05.570Z,9.40
2023-01-12T14:19:51.563Z,11.60
2023-01-12T14:22:36.995Z,9.90
2023-01-12T14:25:25.416Z,9.20
2023-01-12T14:28:20.120Z,9.10
2023-01-12T14:31:07.754Z,9.10
2023-01-12T14:33:56.540Z,9.10
2023-01-12T14:36:44.379Z,10.40
2023-01-12T14:39:36.964Z,9.00
2023-01-12T14:42:41.347Z,9.70
2023-01-12T14:45:46.968Z,9.00
2023-01-12T14:48:34.313Z,11.70
2023-01-12T14:51:25.740Z,9.00
2023-01-12T14:54:11.071Z,9.00
2023-01-12T14:57:36.407Z,9.10
2023-01-12T15:00:27.352Z,9.10
2023-01-12T15:03:26.367Z,9.10
2023-01-12T15:06:15.392Z,9.40
2023-01-12T15:09:01.264Z,9.80
2023-01-12T15:11:46.776Z,9.10
2023-01-12T15:14:32.539Z,11.00
2023-01-12T15:17:36.644Z,8.90
2023-01-12T15:20:42.159Z,8.90
2023-01-12T15:23:54.749Z,8.90
2023-01-12T15:26:40.124Z,10.30
2023-01-12T15:29:25.754Z,8.90
2023-01-12T15:32:29.654Z,11.50
2023-01-12T15:35:29.960Z,8.80
2023-01-12T15:38:16.738Z,8.80
2023-01-12T15:41:03.240Z,8.60
2023-01-12T15:43:48.572Z,8.60
2023-01-12T15:46:34.305Z,8.60
2023-01-12T15:49:19.527Z,9.60
2023-01-12T15:52:05.142Z,8.50
2023-01-12T15:54:51.268Z,10.70
2023-01-12T15:57:36.620Z,8.60
2023-01-12T16:00:23.893Z,8.40
2023-01-12T16:03:28.912Z,8.60
2023-01-12T16:06:17.210Z,8.40
2023-01-12T16:09:03.583Z,8.50
2023-01-12T16:11:48.830Z,8.40
2023-01-12T16:14:34.352Z,8.30
2023-01-12T16:17:20.081Z,8.40
2023-01-12T16:20:06.353Z,8.30
2023-01-12T16:22:51.965Z,8.40
2023-01-12T16:25:38.348Z,8.50
2023-01-12T16:28:23.821Z,8.20
2023-01-12T16:31:12.213Z,8.20
2023-01-12T16:33:57.583Z,9.30
2023-01-12T16:36:43.195Z,8.20
2023-01-12T16:39:29.107Z,8.20
2023-01-12T16:42:14.743Z,10.10
2023-01-12T16:45:00.232Z,8.10
2023-01-12T16:47:45.511Z,8.20
2023-01-12T16:50:31.080Z,8.60
2023-01-12T16:53:16.605Z,8.00
2023-01-12T16:56:03.457Z,9.40
2023-01-12T16:58:48.962Z,8.20
2023-01-12T17:01:35.680Z,8.10
2023-01-12T17:04:21.116Z,8.20
2023-01-12T17:07:07.422Z,8.10
2023-01-12T17:09:53.167Z,9.10
2023-01-12T17:12:39.014Z,9.60
2023-01-12T17:15:39.575Z,9.00
2023-01-12T17:18:24.912Z,8.20
2023-01-12T17:21:13.655Z,8.60
2023-01-12T17:23:59.096Z,7.90
2023-01-12T17:26:45.817Z,8.00
2023-01-12T17:29:33.067Z,8.00
2023-01-12T17:32:18.746Z,8.10
2023-01-12T17:35:07.191Z,8.00
2023-01-12T17:37:54.417Z,8.00
2023-01-12T17:40:41.231Z,7.90
2023-01-12T17:43:26.754Z,7.90
2023-01-12T17:46:18.640Z,7.80
2023-01-12T17:49:08.612Z,7.80
2023-01-12T17:51:53.925Z,9.60
2023-01-12T17:54:39.258Z,9.00
2023-01-12T17:57:24.615Z,7.40
2023-01-12T18:00:15.539Z,7.50
2023-01-12T18:03:01.222Z,8.40
2023-01-12T18:05:49.944Z,7.40
2023-01-12T18:08:39.258Z,8.50
2023-01-12T18:11:25.363Z,7.30
2023-01-12T18:14:10.831Z,7.20
2023-01-12T18:16:57.381Z,7.10
2023-01-12T18:19:42.874Z,9.40
2023-01-12T18:22:28.357Z,8.60
2023-01-12T18:25:13.941Z,9.50
2023-01-12T18:27:59.420Z,7.20
2023-01-12T18:30:45.036Z,7.20
2023-01-12T18:33:30.783Z,9.30
2023-01-12T18:36:19.099Z,7.10
2023-01-12T18:39:07.621Z,7.00
2023-01-12T18:42:11.548Z,7.10
2023-01-12T18:44:59.475Z,7.00
2023-01-12T18:48:03.284Z,7.10
2023-01-12T18:51:11.705Z,7.10
2023-01-12T18:53:56.921Z,8.30
2023-01-12T18:56:42.316Z,7.00
2023-01-12T18:59:29.121Z,7.20
2023-01-12T19:02:15.774Z,6.60
2023-01-12T19:05:20.179Z,6.60
2023-01-12T19:08:25.519Z,6.70
2023-01-12T19:11:12.771Z,8.00
2023-01-12T19:14:17.003Z,6.80
2023-01-12T19:17:20.675Z,6.80
2023-01-12T19:20:08.324Z,6.80
2023-01-12T19:23:12.061Z,6.80
2023-01-12T19:26:23.051Z,7.00
2023-01-12T19:29:08.895Z,6.80
2023-01-12T19:31:54.189Z,8.00
2023-01-12T19:34:39.758Z,6.80
2023-01-12T19:37:25.434Z,6.70
2023-01-12T19:40:32.001Z,6.80
2023-01-12T19:43:20.715Z,6.90
2023-01-12T19:46:06.035Z,6.90
2023-01-12T19:48:51.501Z,6.80
2023-01-12T19:51:38.905Z,6.90
2023-01-12T19:54:24.329Z,7.50
2023-01-12T19:57:09.954Z,8.40
2023-01-12T19:59:55.552Z,7.60
2023-01-12T20:02:44.916Z,6.90
2023-01-12T20:05:30.499Z,6.90
2023-01-12T20:08:16.942Z,6.90
2023-01-12T20:11:05.139Z,6.90
2023-01-12T20:13:51.055Z,7.00
2023-01-12T20:16:36.581Z,8.90
2023-01-12T20:19:22.203Z,7.00
2023-01-12T20:22:07.671Z,7.00
2023-01-12T20:24:53.104Z,6.90
2023-01-12T20:27:39.301Z,6.80
2023-01-12T20:30:37.470Z,8.50
2023-01-12T20:33:24.537Z,6.90
2023-01-12T20:36:12.515Z,6.80
2023-01-12T20:38:58.976Z,6.80
2023-01-12T20:41:44.879Z,6.60
2023-01-12T20:44:30.514Z,6.70
2023-01-12T20:47:15.823Z,6.60
2023-01-12T20:50:02.133Z,7.80
2023-01-12T20:52:49.102Z,6.70
2023-01-12T20:55:34.519Z,6.60
2023-01-12T20:58:20.092Z,6.90
2023-01-12T21:01:11.412Z,8.50
2023-01-12T21:03:56.996Z,6.60
2023-01-12T21:06:43.283Z,6.60
2023-01-12T21:09:28.955Z,6.60
2023-01-12T21:12:14.475Z,7.30
2023-01-12T21:15:00.040Z,6.60
2023-01-12T21:17:45.613Z,7.80
2023-01-12T21:20:31.236Z,6.50
2023-01-12T21:23:16.627Z,7.10
2023-01-12T21:26:02.236Z,7.60
2023-01-12T21:28:47.565Z,6.60
2023-01-12T21:31:33.263Z,8.40
2023-01-12T21:34:18.505Z,6.60
2023-01-12T21:37:03.993Z,6.70
2023-01-12T21:39:49.414Z,6.70
2023-01-12T21:42:53.583Z,6.70
2023-01-12T21:45:42.017Z,6.70
2023-01-12T21:48:27.618Z,6.60
2023-01-12T21:51:15.082Z,8.20
2023-01-12T21:54:00.387Z,6.60
2023-01-12T21:56:45.959Z,6.50
2023-01-12T21:59:31.875Z,7.30
2023-01-12T22:02:17.493Z,6.30
2023-01-12T22:05:03.442Z,6.40
2023-01-12T22:07:50.154Z,6.30
2023-01-12T22:10:35.714Z,6.40
2023-01-12T22:13:21.424Z,6.80
2023-01-12T22:16:09.426Z,7.00
2023-01-12T22:18:54.885Z,6.50
2023-01-12T22:21:40.987Z,7.70
2023-01-12T22:24:27.337Z,6.50
2023-01-12T22:27:12.861Z,6.80
2023-01-12T22:29:58.413Z,7.70
2023-01-12T22:32:44.309Z,8.70
2023-01-12T22:35:29.928Z,6.90
2023-01-12T22:38:15.572Z,6.80
2023-01-12T22:41:09.010Z,7.90
2023-01-12T22:43:54.823Z,6.60
2023-01-12T22:46:41.081Z,6.50
2023-01-12T22:49:26.296Z,6.70
2023-01-12T22:52:11.968Z,6.70
2023-01-12T22:55:00.370Z,7.00
2023-01-12T22:57:46.393Z,7.10
2023-01-12T23:00:31.614Z,7.20
2023-01-12T23:03:17.504Z,7.00
2023-01-12T23:06:03.821Z,7.80
2023-01-12T23:08:49.456Z,7.00
2023-01-12T23:11:35.145Z,8.50
2023-01-12T23:14:20.396Z,8.90
2023-01-12T23:17:06.043Z,7.10
2023-01-12T23:19:51.532Z,7.20
2023-01-12T23:22:36.940Z,7.30
2023-01-12T23:25:22.402Z,8.60
2023-01-12T23:28:08.141Z,7.40
2023-01-12T23:30:53.435Z,7.50
2023-01-12T23:33:39.900Z,8.20
2023-01-12T23:36:27.287Z,7.50
2023-01-12T23:39:12.895Z,7.50
2023-01-12T23:41:58.207Z,7.50
2023-01-12T23:44:45.219Z,7.60
2023-01-12T23:47:32.684Z,7.50
2023-01-12T23:50:18.370Z,7.60
2023-01-12T23:53:04.096Z,9.00
2023-01-12T23:55:49.430Z,7.70
2023-01-12T23:58:35.341Z,10.30
